East Chatham, New York
Current Conditions -  °F | °C
As of 12:54 AM on Wednesday 26 Nov 2014 (Local Time) from KPSF Reporting Station
Clear Clear  
Wind Chill: 31°   Ceiling: Unl
Heat Index: 37°   Visibility: 10mi
Dew Point: 27°   Wind: 8mph
Humidity: 67%   Direction: 310°NW
Pressure: 30.13"   Gusts: NA
Location:  42.41°N, 73.52°W
Report Text: KPSF 260554Z AUTO 31007KT 10SM CLR 03/M03 A3013 RMK AO2 SLP202 T00281028 10050 20011 51021
Loading
Personal Weather Stations






























Interactive Weather Map New forecast layout! Learn more

10-Day Weather Forecast

Advertisements
Track Severe Weather on mobile